sensor_id;sensor_type;location;lat;lon;timestamp;temperature;humidity
29547;DHT22;40782;47.264;11.330;2022-11-11T00:00:58;6.30;99.90
29547;DHT22;40782;47.264;11.330;2022-11-11T00:03:26;6.20;99.90
29547;DHT22;40782;47.264;11.330;2022-11-11T00:05:53;6.20;99.90
29547;DHT22;40782;47.264;11.330;2022-11-11T00:08:21;6.20;99.90
29547;DHT22;40782;47.264;11.330;2022-11-11T00:10:48;6.10;99.90
29547;DHT22;40782;47.264;11.330;2022-11-11T00:13:16;6.10;99.90
29547;DHT22;40782;47.264;11.330;2022-11-11T00:15:43;6.10;1.00
29547;DHT22;40782;47.264;11.330;2022-11-11T00:18:11;6.20;1.00
29547;DHT22;40782;47.264;11.330;2022-11-11T00:20:57;6.20;1.00
29547;DHT22;40782;47.264;11.330;2022-11-11T00:23:42;6.20;99.90
29547;DHT22;40782;47.264;11.330;2022-11-11T00:26:38;6.30;99.90
29547;DHT22;40782;47.264;11.330;2022-11-11T00:29:07;6.30;1.00
29547;DHT22;40782;47.264;11.330;2022-11-11T00:31:34;6.30;1.00
29547;DHT22;40782;47.264;11.330;2022-11-11T00:34:21;6.30;1.00
29547;DHT22;40782;47.264;11.330;2022-11-11T00:36:49;6.40;99.90
29547;DHT22;40782;47.264;11.330;2022-11-11T00:39:15;6.40;99.90
29547;DHT22;40782;47.264;11.330;2022-11-11T00:41:42;6.40;99.90
29547;DHT22;40782;47.264;11.330;2022-11-11T00:44:10;6.40;8.60
29547;DHT22;40782;47.264;11.330;2022-11-11T00:46:37;6.40;99.90
29547;DHT22;40782;47.264;11.330;2022-11-11T00:49:22;6.40;1.00
29547;DHT22;40782;47.264;11.330;2022-11-11T00:52:07;6.40;1.00
29547;DHT22;40782;47.264;11.330;2022-11-11T00:54:34;6.40;99.90
29547;DHT22;40782;47.264;11.330;2022-11-11T00:57:01;6.40;1.00
29547;DHT22;40782;47.264;11.330;2022-11-11T00:59:30;6.40;1.00
29547;DHT22;40782;47.264;11.330;2022-11-11T01:01:57;6.40;1.00
29547;DHT22;40782;47.264;11.330;2022-11-11T01:04:24;6.40;1.00
29547;DHT22;40782;47.264;11.330;2022-11-11T01:06:51;6.30;1.00
29547;DHT22;40782;47.264;11.330;2022-11-11T01:09:19;6.30;99.90
29547;DHT22;40782;47.264;11.330;2022-11-11T01:11:46;6.30;99.90
29547;DHT22;40782;47.264;11.330;2022-11-11T01:14:13;6.30;99.90
29547;DHT22;40782;47.264;11.330;2022-11-11T01:16:41;6.30;99.90
29547;DHT22;40782;47.264;11.330;2022-11-11T01:19:08;6.30;1.00
29547;DHT22;40782;47.264;11.330;2022-11-11T01:21:36;6.30;1.00
29547;DHT22;40782;47.264;11.330;2022-11-11T01:24:03;6.30;1.00
29547;DHT22;40782;47.264;11.330;2022-11-11T01:26:30;6.20;1.00
29547;DHT22;40782;47.264;11.330;2022-11-11T01:28:57;6.20;1.00
29547;DHT22;40782;47.264;11.330;2022-11-11T01:31:26;6.20;1.00
29547;DHT22;40782;47.264;11.330;2022-11-11T01:33:54;6.20;1.00
29547;DHT22;40782;47.264;11.330;2022-11-11T01:36:23;6.20;1.00
29547;DHT22;40782;47.264;11.330;2022-11-11T01:38:53;6.10;1.00
29547;DHT22;40782;47.264;11.330;2022-11-11T01:41:22;6.00;1.00
29547;DHT22;40782;47.264;11.330;2022-11-11T01:43:59;6.00;1.00
29547;DHT22;40782;47.264;11.330;2022-11-11T01:46:32;5.90;1.00
29547;DHT22;40782;47.264;11.330;2022-11-11T01:49:19;5.90;1.00
29547;DHT22;40782;47.264;11.330;2022-11-11T01:51:52;5.90;1.00
29547;DHT22;40782;47.264;11.330;2022-11-11T01:54:25;5.80;1.00
29547;DHT22;40782;47.264;11.330;2022-11-11T01:56:56;5.80;1.00
29547;DHT22;40782;47.264;11.330;2022-11-11T01:59:26;5.80;1.00
29547;DHT22;40782;47.264;11.330;2022-11-11T02:01:53;5.80;1.00
29547;DHT22;40782;47.264;11.330;2022-11-11T02:04:22;5.80;1.00
29547;DHT22;40782;47.264;11.330;2022-11-11T02:07:09;5.80;1.00
29547;DHT22;40782;47.264;11.330;2022-11-11T02:09:39;5.80;1.00
29547;DHT22;40782;47.264;11.330;2022-11-11T02:12:09;5.80;1.00
29547;DHT22;40782;47.264;11.330;2022-11-11T02:14:57;5.80;1.00
29547;DHT22;40782;47.264;11.330;2022-11-11T02:17:27;5.80;1.00
29547;DHT22;40782;47.264;11.330;2022-11-11T02:19:58;5.80;1.00
29547;DHT22;40782;47.264;11.330;2022-11-11T02:22:35;5.80;1.00
29547;DHT22;40782;47.264;11.330;2022-11-11T02:25:08;5.80;1.00
29547;DHT22;40782;47.264;11.330;2022-11-11T02:27:36;5.80;1.00
29547;DHT22;40782;47.264;11.330;2022-11-11T02:30:06;5.80;1.00
29547;DHT22;40782;47.264;11.330;2022-11-11T02:32:42;5.80;1.00
29547;DHT22;40782;47.264;11.330;2022-11-11T02:35:15;5.80;1.00
29547;DHT22;40782;47.264;11.330;2022-11-11T02:37:45;5.70;1.00
29547;DHT22;40782;47.264;11.330;2022-11-11T02:40:19;5.70;1.00
29547;DHT22;40782;47.264;11.330;2022-11-11T02:42:47;5.70;1.00
29547;DHT22;40782;47.264;11.330;2022-11-11T02:45:13;5.60;1.00
29547;DHT22;40782;47.264;11.330;2022-11-11T02:47:40;5.60;1.00
29547;DHT22;40782;47.264;11.330;2022-11-11T02:50:08;5.60;1.00
29547;DHT22;40782;47.264;11.330;2022-11-11T02:52:35;5.60;1.00
29547;DHT22;40782;47.264;11.330;2022-11-11T02:55:03;5.60;1.00
29547;DHT22;40782;47.264;11.330;2022-11-11T02:57:32;5.50;1.00
29547;DHT22;40782;47.264;11.330;2022-11-11T02:59:59;5.50;1.00
29547;DHT22;40782;47.264;11.330;2022-11-11T03:02:27;5.50;1.00
29547;DHT22;40782;47.264;11.330;2022-11-11T03:04:55;5.50;1.00
29547;DHT22;40782;47.264;11.330;2022-11-11T03:07:24;5.50;1.00
29547;DHT22;40782;47.264;11.330;2022-11-11T03:09:51;5.40;1.00
29547;DHT22;40782;47.264;11.330;2022-11-11T03:12:18;5.40;1.00
29547;DHT22;40782;47.264;11.330;2022-11-11T03:14:47;5.40;1.00
29547;DHT22;40782;47.264;11.330;2022-11-11T03:17:14;5.30;1.00
29547;DHT22;40782;47.264;11.330;2022-11-11T03:19:59;5.30;1.00
29547;DHT22;40782;47.264;11.330;2022-11-11T03:22:40;5.20;1.00
29547;DHT22;40782;47.264;11.330;2022-11-11T03:25:08;5.20;1.00
29547;DHT22;40782;47.264;11.330;2022-11-11T03:27:52;5.20;1.00
29547;DHT22;40782;47.264;11.330;2022-11-11T03:30:21;5.20;1.00
29547;DHT22;40782;47.264;11.330;2022-11-11T03:32:48;5.30;1.00
29547;DHT22;40782;47.264;11.330;2022-11-11T03:35:15;5.30;1.00
29547;DHT22;40782;47.264;11.330;2022-11-11T03:37:42;5.30;1.00
29547;DHT22;40782;47.264;11.330;2022-11-11T03:40:27;5.30;1.00
29547;DHT22;40782;47.264;11.330;2022-11-11T03:42:55;5.30;1.00
29547;DHT22;40782;47.264;11.330;2022-11-11T03:45:23;5.30;1.00
29547;DHT22;40782;47.264;11.330;2022-11-11T03:47:50;5.40;1.00
29547;DHT22;40782;47.264;11.330;2022-11-11T03:50:19;5.40;1.00
29547;DHT22;40782;47.264;11.330;2022-11-11T03:52:47;5.40;1.00
29547;DHT22;40782;47.264;11.330;2022-11-11T03:55:14;5.30;1.00
29547;DHT22;40782;47.264;11.330;2022-11-11T03:57:43;5.20;1.00
29547;DHT22;40782;47.264;11.330;2022-11-11T04:00:12;5.20;1.00
29547;DHT22;40782;47.264;11.330;2022-11-11T04:02:40;5.10;1.00
29547;DHT22;40782;47.264;11.330;2022-11-11T04:05:25;5.10;1.00
29547;DHT22;40782;47.264;11.330;2022-11-11T04:08:11;5.10;1.00
29547;DHT22;40782;47.264;11.330;2022-11-11T04:10:57;5.10;1.00
29547;DHT22;40782;47.264;11.330;2022-11-11T04:13:26;5.10;1.00
29547;DHT22;40782;47.264;11.330;2022-11-11T04:16:10;5.10;1.00
29547;DHT22;40782;47.264;11.330;2022-11-11T04:18:39;5.10;1.00
29547;DHT22;40782;47.264;11.330;2022-11-11T04:21:24;5.10;1.00
29547;DHT22;40782;47.264;11.330;2022-11-11T04:24:10;5.00;1.00
29547;DHT22;40782;47.264;11.330;2022-11-11T04:26:57;5.10;1.00
29547;DHT22;40782;47.264;11.330;2022-11-11T04:29:24;5.00;1.00
29547;DHT22;40782;47.264;11.330;2022-11-11T04:31:54;5.00;1.00
29547;DHT22;40782;47.264;11.330;2022-11-11T04:34:41;5.00;1.00
29547;DHT22;40782;47.264;11.330;2022-11-11T04:37:08;5.00;1.00
29547;DHT22;40782;47.264;11.330;2022-11-11T04:39:35;4.90;1.00
29547;DHT22;40782;47.264;11.330;2022-11-11T04:42:20;4.90;1.00
29547;DHT22;40782;47.264;11.330;2022-11-11T04:44:47;4.90;1.00
29547;DHT22;40782;47.264;11.330;2022-11-11T04:47:32;4.90;1.00
29547;DHT22;40782;47.264;11.330;2022-11-11T04:50:01;4.80;1.00
29547;DHT22;40782;47.264;11.330;2022-11-11T04:52:28;4.80;1.00
29547;DHT22;40782;47.264;11.330;2022-11-11T04:54:56;4.80;1.00
29547;DHT22;40782;47.264;11.330;2022-11-11T04:57:42;4.80;1.00
29547;DHT22;40782;47.264;11.330;2022-11-11T05:00:12;4.70;1.00
29547;DHT22;40782;47.264;11.330;2022-11-11T05:02:39;4.70;1.00
29547;DHT22;40782;47.264;11.330;2022-11-11T05:05:26;4.70;1.00
29547;DHT22;40782;47.264;11.330;2022-11-11T05:07:54;4.70;1.00
29547;DHT22;40782;47.264;11.330;2022-11-11T05:10:38;4.70;1.00
29547;DHT22;40782;47.264;11.330;2022-11-11T05:13:06;4.70;1.00
29547;DHT22;40782;47.264;11.330;2022-11-11T05:15:50;4.70;1.00
29547;DHT22;40782;47.264;11.330;2022-11-11T05:18:35;4.60;1.00
29547;DHT22;40782;47.264;11.330;2022-11-11T05:21:25;4.70;1.00
29547;DHT22;40782;47.264;11.330;2022-11-11T05:23:53;4.60;1.00
29547;DHT22;40782;47.264;11.330;2022-11-11T05:26:38;4.60;1.00
29547;DHT22;40782;47.264;11.330;2022-11-11T05:29:05;4.60;1.00
29547;DHT22;40782;47.264;11.330;2022-11-11T05:31:32;4.60;1.00
29547;DHT22;40782;47.264;11.330;2022-11-11T05:33:59;4.60;1.00
29547;DHT22;40782;47.264;11.330;2022-11-11T05:36:28;4.60;1.00
29547;DHT22;40782;47.264;11.330;2022-11-11T05:38:55;4.60;1.00
29547;DHT22;40782;47.264;11.330;2022-11-11T05:41:22;4.60;1.00
29547;DHT22;40782;47.264;11.330;2022-11-11T05:43:49;4.60;1.00
29547;DHT22;40782;47.264;11.330;2022-11-11T05:46:16;4.60;1.00
29547;DHT22;40782;47.264;11.330;2022-11-11T05:48:43;4.60;1.00
29547;DHT22;40782;47.264;11.330;2022-11-11T05:51:24;4.60;1.00
29547;DHT22;40782;47.264;11.330;2022-11-11T05:53:59;4.50;1.00
29547;DHT22;40782;47.264;11.330;2022-11-11T05:56:26;4.50;1.00
29547;DHT22;40782;47.264;11.330;2022-11-11T05:58:53;4.40;1.00
29547;DHT22;40782;47.264;11.330;2022-11-11T06:01:21;4.40;1.00
29547;DHT22;40782;47.264;11.330;2022-11-11T06:03:48;4.40;1.00
29547;DHT22;40782;47.264;11.330;2022-11-11T06:06:15;4.40;1.00
29547;DHT22;40782;47.264;11.330;2022-11-11T06:08:42;4.30;1.00
29547;DHT22;40782;47.264;11.330;2022-11-11T06:11:11;4.30;1.00
29547;DHT22;40782;47.264;11.330;2022-11-11T06:13:38;4.20;1.00
29547;DHT22;40782;47.264;11.330;2022-11-11T06:16:06;4.20;1.00
29547;DHT22;40782;47.264;11.330;2022-11-11T06:18:33;4.20;1.00
29547;DHT22;40782;47.264;11.330;2022-11-11T06:21:00;4.20;1.00
29547;DHT22;40782;47.264;11.330;2022-11-11T06:23:28;4.20;1.00
29547;DHT22;40782;47.264;11.330;2022-11-11T06:25:55;4.20;1.00
29547;DHT22;40782;47.264;11.330;2022-11-11T06:28:45;4.20;1.00
29547;DHT22;40782;47.264;11.330;2022-11-11T06:31:14;4.20;1.00
29547;DHT22;40782;47.264;11.330;2022-11-11T06:33:42;4.20;1.00
29547;DHT22;40782;47.264;11.330;2022-11-11T06:36:10;4.20;1.00
29547;DHT22;40782;47.264;11.330;2022-11-11T06:38:38;4.20;1.00
29547;DHT22;40782;47.264;11.330;2022-11-11T06:41:05;4.20;1.00
29547;DHT22;40782;47.264;11.330;2022-11-11T06:43:32;4.20;1.00
29547;DHT22;40782;47.264;11.330;2022-11-11T06:46:01;4.20;1.00
29547;DHT22;40782;47.264;11.330;2022-11-11T06:48:28;4.10;1.00
29547;DHT22;40782;47.264;11.330;2022-11-11T06:51:01;4.20;1.00
29547;DHT22;40782;47.264;11.330;2022-11-11T06:53:29;4.20;1.00
29547;DHT22;40782;47.264;11.330;2022-11-11T06:55:57;4.20;1.00
29547;DHT22;40782;47.264;11.330;2022-11-11T06:58:24;4.20;1.00
29547;DHT22;40782;47.264;11.330;2022-11-11T07:00:52;4.20;1.00
29547;DHT22;40782;47.264;11.330;2022-11-11T07:03:21;4.30;1.00
29547;DHT22;40782;47.264;11.330;2022-11-11T07:05:48;4.30;1.00
29547;DHT22;40782;47.264;11.330;2022-11-11T07:08:17;4.30;1.00
29547;DHT22;40782;47.264;11.330;2022-11-11T07:10:46;4.30;1.00
29547;DHT22;40782;47.264;11.330;2022-11-11T07:13:13;4.30;1.00
29547;DHT22;40782;47.264;11.330;2022-11-11T07:15:41;4.30;1.00
29547;DHT22;40782;47.264;11.330;2022-11-11T07:18:09;4.30;1.00
29547;DHT22;40782;47.264;11.330;2022-11-11T07:20:38;4.30;1.00
29547;DHT22;40782;47.264;11.330;2022-11-11T07:23:06;4.30;1.00
29547;DHT22;40782;47.264;11.330;2022-11-11T07:25:33;4.40;1.00
29547;DHT22;40782;47.264;11.330;2022-11-11T07:28:00;4.40;1.00
29547;DHT22;40782;47.264;11.330;2022-11-11T07:30:27;4.50;1.00
29547;DHT22;40782;47.264;11.330;2022-11-11T07:32:55;4.50;1.00
29547;DHT22;40782;47.264;11.330;2022-11-11T07:35:22;4.50;1.00
29547;DHT22;40782;47.264;11.330;2022-11-11T07:37:51;4.50;1.00
29547;DHT22;40782;47.264;11.330;2022-11-11T07:40:18;4.50;1.00
29547;DHT22;40782;47.264;11.330;2022-11-11T07:42:46;4.60;1.00
29547;DHT22;40782;47.264;11.330;2022-11-11T07:45:14;4.60;1.00
29547;DHT22;40782;47.264;11.330;2022-11-11T07:47:44;4.70;1.00
29547;DHT22;40782;47.264;11.330;2022-11-11T07:50:11;4.70;1.00
29547;DHT22;40782;47.264;11.330;2022-11-11T07:52:39;4.80;1.00
29547;DHT22;40782;47.264;11.330;2022-11-11T07:55:08;4.90;1.00
29547;DHT22;40782;47.264;11.330;2022-11-11T07:57:35;5.00;1.00
29547;DHT22;40782;47.264;11.330;2022-11-11T08:00:04;5.00;99.90
29547;DHT22;40782;47.264;11.330;2022-11-11T08:02:32;5.00;1.00
29547;DHT22;40782;47.264;11.330;2022-11-11T08:04:59;5.10;1.00
29547;DHT22;40782;47.264;11.330;2022-11-11T08:07:26;5.20;1.00
29547;DHT22;40782;47.264;11.330;2022-11-11T08:09:53;5.20;99.90
29547;DHT22;40782;47.264;11.330;2022-11-11T08:12:21;5.30;1.00
29547;DHT22;40782;47.264;11.330;2022-11-11T08:15:07;5.30;1.00
29547;DHT22;40782;47.264;11.330;2022-11-11T08:17:38;5.30;99.90
29547;DHT22;40782;47.264;11.330;2022-11-11T08:20:06;5.30;99.90
29547;DHT22;40782;47.264;11.330;2022-11-11T08:22:35;5.30;1.00
29547;DHT22;40782;47.264;11.330;2022-11-11T08:25:04;5.30;1.00
29547;DHT22;40782;47.264;11.330;2022-11-11T08:27:33;5.30;1.00
29547;DHT22;40782;47.264;11.330;2022-11-11T08:30:00;5.30;30.20
29547;DHT22;40782;47.264;11.330;2022-11-11T08:32:27;5.40;1.00
29547;DHT22;40782;47.264;11.330;2022-11-11T08:34:54;5.40;1.00
29547;DHT22;40782;47.264;11.330;2022-11-11T08:37:21;5.50;1.00
29547;DHT22;40782;47.264;11.330;2022-11-11T08:39:48;5.50;1.00
29547;DHT22;40782;47.264;11.330;2022-11-11T08:42:17;5.50;1.00
29547;DHT22;40782;47.264;11.330;2022-11-11T08:44:46;5.60;99.90
29547;DHT22;40782;47.264;11.330;2022-11-11T08:47:13;5.50;1.00
29547;DHT22;40782;47.264;11.330;2022-11-11T08:49:40;5.60;12.20
29547;DHT22;40782;47.264;11.330;2022-11-11T08:52:08;5.60;1.00
29547;DHT22;40782;47.264;11.330;2022-11-11T08:54:35;5.70;99.90
29547;DHT22;40782;47.264;11.330;2022-11-11T08:57:02;5.80;48.90
29547;DHT22;40782;47.264;11.330;2022-11-11T08:59:29;5.80;1.00
29547;DHT22;40782;47.264;11.330;2022-11-11T09:01:57;5.90;1.00
29547;DHT22;40782;47.264;11.330;2022-11-11T09:04:25;6.00;1.00
29547;DHT22;40782;47.264;11.330;2022-11-11T09:06:52;6.10;99.90
29547;DHT22;40782;47.264;11.330;2022-11-11T09:09:19;6.30;99.90
29547;DHT22;40782;47.264;11.330;2022-11-11T09:11:46;6.40;80.70
29547;DHT22;40782;47.264;11.330;2022-11-11T09:14:13;6.30;1.00
29547;DHT22;40782;47.264;11.330;2022-11-11T09:16:40;6.40;1.00
29547;DHT22;40782;47.264;11.330;2022-11-11T09:19:09;6.50;1.00
29547;DHT22;40782;47.264;11.330;2022-11-11T09:21:36;6.70;1.00
29547;DHT22;40782;47.264;11.330;2022-11-11T09:24:04;6.80;1.00
29547;DHT22;40782;47.264;11.330;2022-11-11T09:26:32;6.80;1.00
29547;DHT22;40782;47.264;11.330;2022-11-11T09:28:59;6.90;1.00
29547;DHT22;40782;47.264;11.330;2022-11-11T09:31:26;7.00;1.00
29547;DHT22;40782;47.264;11.330;2022-11-11T09:33:53;7.20;99.90
29547;DHT22;40782;47.264;11.330;2022-11-11T09:36:22;7.30;99.90
29547;DHT22;40782;47.264;11.330;2022-11-11T09:38:49;7.40;99.90
29547;DHT22;40782;47.264;11.330;2022-11-11T09:41:20;7.60;99.90
29547;DHT22;40782;47.264;11.330;2022-11-11T09:43:53;7.80;99.90
29547;DHT22;40782;47.264;11.330;2022-11-11T09:46:28;7.90;40.00
29547;DHT22;40782;47.264;11.330;2022-11-11T09:52:02;8.20;1.00
29547;DHT22;40782;47.264;11.330;2022-11-11T09:54:33;8.40;1.00
29547;DHT22;40782;47.264;11.330;2022-11-11T09:57:04;8.60;1.00
29547;DHT22;40782;47.264;11.330;2022-11-11T09:59:38;8.90;1.00
29547;DHT22;40782;47.264;11.330;2022-11-11T10:02:17;9.10;1.00
29547;DHT22;40782;47.264;11.330;2022-11-11T10:04:51;9.40;1.00
29547;DHT22;40782;47.264;11.330;2022-11-11T10:07:26;9.50;1.00
29547;DHT22;40782;47.264;11.330;2022-11-11T10:09:58;9.60;1.00
29547;DHT22;40782;47.264;11.330;2022-11-11T10:12:34;9.80;1.00
29547;DHT22;40782;47.264;11.330;2022-11-11T10:15:04;10.00;1.00
29547;DHT22;40782;47.264;11.330;2022-11-11T10:17:36;10.10;1.00
29547;DHT22;40782;47.264;11.330;2022-11-11T10:20:13;10.10;1.00
29547;DHT22;40782;47.264;11.330;2022-11-11T10:22:44;10.30;1.00
29547;DHT22;40782;47.264;11.330;2022-11-11T10:25:20;10.50;1.00
29547;DHT22;40782;47.264;11.330;2022-11-11T10:27:51;10.70;1.00
29547;DHT22;40782;47.264;11.330;2022-11-11T10:30:21;10.80;1.00
29547;DHT22;40782;47.264;11.330;2022-11-11T10:32:57;11.00;1.00
29547;DHT22;40782;47.264;11.330;2022-11-11T10:35:26;11.10;1.00
29547;DHT22;40782;47.264;11.330;2022-11-11T10:38:02;11.50;1.00
29547;DHT22;40782;47.264;11.330;2022-11-11T10:40:38;11.90;1.00
29547;DHT22;40782;47.264;11.330;2022-11-11T10:43:18;12.40;1.00
29547;DHT22;40782;47.264;11.330;2022-11-11T10:45:52;12.80;1.00
29547;DHT22;40782;47.264;11.330;2022-11-11T10:48:24;13.20;99.90
29547;DHT22;40782;47.264;11.330;2022-11-11T10:50:56;13.50;99.90
29547;DHT22;40782;47.264;11.330;2022-11-11T10:53:46;13.60;99.90
29547;DHT22;40782;47.264;11.330;2022-11-11T10:56:19;13.80;99.90
29547;DHT22;40782;47.264;11.330;2022-11-11T10:58:48;13.90;99.90
29547;DHT22;40782;47.264;11.330;2022-11-11T11:01:20;14.10;99.90
29547;DHT22;40782;47.264;11.330;2022-11-11T11:03:51;14.50;99.90
29547;DHT22;40782;47.264;11.330;2022-11-11T11:06:24;14.80;99.90
29547;DHT22;40782;47.264;11.330;2022-11-11T11:08:58;15.20;99.90
29547;DHT22;40782;47.264;11.330;2022-11-11T11:11:30;15.30;99.90
29547;DHT22;40782;47.264;11.330;2022-11-11T11:14:01;15.10;99.90
29547;DHT22;40782;47.264;11.330;2022-11-11T11:16:38;15.20;99.90
29547;DHT22;40782;47.264;11.330;2022-11-11T11:19:14;15.50;99.90
29547;DHT22;40782;47.264;11.330;2022-11-11T11:21:53;15.70;99.90
29547;DHT22;40782;47.264;11.330;2022-11-11T11:24:24;16.00;99.90
29547;DHT22;40782;47.264;11.330;2022-11-11T11:26:53;16.10;99.90
29547;DHT22;40782;47.264;11.330;2022-11-11T11:29:25;16.30;99.90
29547;DHT22;40782;47.264;11.330;2022-11-11T11:31:53;16.30;99.90
29547;DHT22;40782;47.264;11.330;2022-11-11T11:34:23;16.40;99.90
29547;DHT22;40782;47.264;11.330;2022-11-11T11:37:05;16.30;99.90
29547;DHT22;40782;47.264;11.330;2022-11-11T11:39:35;16.40;99.90
29547;DHT22;40782;47.264;11.330;2022-11-11T11:42:03;16.30;99.90
29547;DHT22;40782;47.264;11.330;2022-11-11T11:44:32;16.30;99.90
29547;DHT22;40782;47.264;11.330;2022-11-11T11:47:10;16.30;99.90
29547;DHT22;40782;47.264;11.330;2022-11-11T11:49:51;16.40;99.90
29547;DHT22;40782;47.264;11.330;2022-11-11T11:52:31;16.70;99.90
29547;DHT22;40782;47.264;11.330;2022-11-11T11:55:05;16.80;99.90
29547;DHT22;40782;47.264;11.330;2022-11-11T11:57:47;17.20;99.90
29547;DHT22;40782;47.264;11.330;2022-11-11T12:00:19;17.80;99.90
29547;DHT22;40782;47.264;11.330;2022-11-11T12:03:05;18.40;99.90
29547;DHT22;40782;47.264;11.330;2022-11-11T12:05:40;18.70;99.90
29547;DHT22;40782;47.264;11.330;2022-11-11T12:08:31;19.00;99.90
29547;DHT22;40782;47.264;11.330;2022-11-11T12:11:08;19.10;99.90
29547;DHT22;40782;47.264;11.330;2022-11-11T12:13:47;19.30;99.90
29547;DHT22;40782;47.264;11.330;2022-11-11T12:16:23;19.50;99.90
29547;DHT22;40782;47.264;11.330;2022-11-11T12:19:02;19.60;99.90
29547;DHT22;40782;47.264;11.330;2022-11-11T12:21:38;19.90;99.90
29547;DHT22;40782;47.264;11.330;2022-11-11T12:24:12;20.20;99.90
29547;DHT22;40782;47.264;11.330;2022-11-11T12:26:51;20.50;99.90
29547;DHT22;40782;47.264;11.330;2022-11-11T12:29:33;20.90;99.90
29547;DHT22;40782;47.264;11.330;2022-11-11T12:32:27;21.10;99.90
29547;DHT22;40782;47.264;11.330;2022-11-11T12:35:16;21.10;99.90
29547;DHT22;40782;47.264;11.330;2022-11-11T12:37:52;20.80;99.90
29547;DHT22;40782;47.264;11.330;2022-11-11T12:40:38;21.00;99.90
29547;DHT22;40782;47.264;11.330;2022-11-11T12:43:16;20.80;99.90
29547;DHT22;40782;47.264;11.330;2022-11-11T12:45:51;20.70;99.90
29547;DHT22;40782;47.264;11.330;2022-11-11T12:48:37;20.60;99.90
29547;DHT22;40782;47.264;11.330;2022-11-11T12:51:15;20.60;99.90
29547;DHT22;40782;47.264;11.330;2022-11-11T12:53:53;20.30;99.90
29547;DHT22;40782;47.264;11.330;2022-11-11T12:56:31;20.10;99.90
29547;DHT22;40782;47.264;11.330;2022-11-11T12:59:07;19.90;99.90
29547;DHT22;40782;47.264;11.330;2022-11-11T13:01:49;19.70;99.90
29547;DHT22;40782;47.264;11.330;2022-11-11T13:04:41;19.50;99.90
29547;DHT22;40782;47.264;11.330;2022-11-11T13:07:34;19.40;99.90
29547;DHT22;40782;47.264;11.330;2022-11-11T13:10:15;19.20;99.90
29547;DHT22;40782;47.264;11.330;2022-11-11T13:12:52;19.20;99.90
29547;DHT22;40782;47.264;11.330;2022-11-11T13:15:26;19.10;99.90
29547;DHT22;40782;47.264;11.330;2022-11-11T13:17:58;19.30;99.90
29547;DHT22;40782;47.264;11.330;2022-11-11T13:20:39;19.50;99.90
29547;DHT22;40782;47.264;11.330;2022-11-11T13:23:08;19.80;99.90
29547;DHT22;40782;47.264;11.330;2022-11-11T13:25:39;20.00;99.90
29547;DHT22;40782;47.264;11.330;2022-11-11T13:28:16;20.00;99.90
29547;DHT22;40782;47.264;11.330;2022-11-11T13:31:06;19.80;99.90
29547;DHT22;40782;47.264;11.330;2022-11-11T13:33:38;19.60;99.90
29547;DHT22;40782;47.264;11.330;2022-11-11T13:36:10;19.40;99.90
29547;DHT22;40782;47.264;11.330;2022-11-11T13:38:44;19.30;99.90
29547;DHT22;40782;47.264;11.330;2022-11-11T13:41:19;19.20;99.90
29547;DHT22;40782;47.264;11.330;2022-11-11T13:43:48;19.10;99.90
29547;DHT22;40782;47.264;11.330;2022-11-11T13:46:32;18.80;99.90
29547;DHT22;40782;47.264;11.330;2022-11-11T13:49:01;18.70;99.90
29547;DHT22;40782;47.264;11.330;2022-11-11T13:51:35;18.80;99.90
29547;DHT22;40782;47.264;11.330;2022-11-11T13:54:05;19.00;99.90
29547;DHT22;40782;47.264;11.330;2022-11-11T13:56:36;18.90;99.90
29547;DHT22;40782;47.264;11.330;2022-11-11T13:59:05;18.70;99.90
29547;DHT22;40782;47.264;11.330;2022-11-11T14:01:36;18.60;99.90
29547;DHT22;40782;47.264;11.330;2022-11-11T14:04:06;18.60;99.90
29547;DHT22;40782;47.264;11.330;2022-11-11T14:06:50;18.60;99.90
29547;DHT22;40782;47.264;11.330;2022-11-11T14:09:56;18.50;99.90
29547;DHT22;40782;47.264;11.330;2022-11-11T14:12:36;18.30;99.90
29547;DHT22;40782;47.264;11.330;2022-11-11T14:15:04;18.10;99.90
29547;DHT22;40782;47.264;11.330;2022-11-11T14:17:43;18.00;99.90
29547;DHT22;40782;47.264;11.330;2022-11-11T14:20:35;17.70;99.90
29547;DHT22;40782;47.264;11.330;2022-11-11T14:23:23;17.50;99.90
29547;DHT22;40782;47.264;11.330;2022-11-11T14:26:14;17.20;99.90
29547;DHT22;40782;47.264;11.330;2022-11-11T14:28:49;17.00;99.90
29547;DHT22;40782;47.264;11.330;2022-11-11T14:31:44;16.90;99.90
29547;DHT22;40782;47.264;11.330;2022-11-11T14:34:22;16.60;99.90
29547;DHT22;40782;47.264;11.330;2022-11-11T14:36:55;16.40;99.90
29547;DHT22;40782;47.264;11.330;2022-11-11T14:39:34;16.10;99.90
29547;DHT22;40782;47.264;11.330;2022-11-11T14:42:02;15.90;99.90
29547;DHT22;40782;47.264;11.330;2022-11-11T14:44:40;15.70;99.90
29547;DHT22;40782;47.264;11.330;2022-11-11T14:47:22;15.50;99.90
29547;DHT22;40782;47.264;11.330;2022-11-11T14:49:52;15.40;99.90
29547;DHT22;40782;47.264;11.330;2022-11-11T14:52:25;15.20;99.90
29547;DHT22;40782;47.264;11.330;2022-11-11T14:55:13;15.00;99.90
29547;DHT22;40782;47.264;11.330;2022-11-11T14:57:45;14.90;99.90
29547;DHT22;40782;47.264;11.330;2022-11-11T15:00:16;14.70;99.90
29547;DHT22;40782;47.264;11.330;2022-11-11T15:02:49;14.50;99.90
29547;DHT22;40782;47.264;11.330;2022-11-11T15:05:24;14.40;99.90
29547;DHT22;40782;47.264;11.330;2022-11-11T15:08:01;14.30;99.90
29547;DHT22;40782;47.264;11.330;2022-11-11T15:10:43;14.20;99.90
29547;DHT22;40782;47.264;11.330;2022-11-11T15:13:43;14.00;99.90
29547;DHT22;40782;47.264;11.330;2022-11-11T15:16:21;13.80;99.90
29547;DHT22;40782;47.264;11.330;2022-11-11T15:19:07;13.70;99.90
29547;DHT22;40782;47.264;11.330;2022-11-11T15:21:42;13.50;99.90
29547;DHT22;40782;47.264;11.330;2022-11-11T15:24:19;13.20;99.90
29547;DHT22;40782;47.264;11.330;2022-11-11T15:26:56;13.00;99.90
29547;DHT22;40782;47.264;11.330;2022-11-11T15:29:53;12.80;99.90
29547;DHT22;40782;47.264;11.330;2022-11-11T15:32:32;12.70;99.90
29547;DHT22;40782;47.264;11.330;2022-11-11T15:35:08;12.50;99.90
29547;DHT22;40782;47.264;11.330;2022-11-11T15:37:49;12.30;99.90
29547;DHT22;40782;47.264;11.330;2022-11-11T15:40:18;12.10;99.90
29547;DHT22;40782;47.264;11.330;2022-11-11T15:42:46;12.00;99.90
29547;DHT22;40782;47.264;11.330;2022-11-11T15:45:20;11.90;99.90
29547;DHT22;40782;47.264;11.330;2022-11-11T15:47:48;11.80;99.90
29547;DHT22;40782;47.264;11.330;2022-11-11T15:50:28;11.70;99.90
29547;DHT22;40782;47.264;11.330;2022-11-11T15:52:58;11.60;99.90
29547;DHT22;40782;47.264;11.330;2022-11-11T15:55:27;11.40;99.90
29547;DHT22;40782;47.264;11.330;2022-11-11T15:58:07;11.30;99.90
29547;DHT22;40782;47.264;11.330;2022-11-11T16:00:35;11.20;99.90
29547;DHT22;40782;47.264;11.330;2022-11-11T16:03:03;11.00;99.90
29547;DHT22;40782;47.264;11.330;2022-11-11T16:05:31;10.90;99.90
29547;DHT22;40782;47.264;11.330;2022-11-11T16:08:05;10.80;99.90
29547;DHT22;40782;47.264;11.330;2022-11-11T16:10:35;10.70;99.90
29547;DHT22;40782;47.264;11.330;2022-11-11T16:13:07;10.50;99.90